sensor_id;sensor_type;location;lat;lon;timestamp;P1;durP1;ratioP1;P2;durP2;ratioP2
66380;SDS011;53177;52.648;1.214;2022-10-16T00:01:22;12.07;;;1.70;;
66380;SDS011;53177;52.648;1.214;2022-10-16T00:03:49;9.90;;;1.40;;
66380;SDS011;53177;52.648;1.214;2022-10-16T00:06:16;13.23;;;1.73;;
66380;SDS011;53177;52.648;1.214;2022-10-16T00:08:44;9.77;;;1.70;;
66380;SDS011;53177;52.648;1.214;2022-10-16T00:11:14;15.75;;;2.03;;
66380;SDS011;53177;52.648;1.214;2022-10-16T00:13:42;11.35;;;2.10;;
66380;SDS011;53177;52.648;1.214;2022-10-16T00:16:09;9.07;;;1.70;;
66380;SDS011;53177;52.648;1.214;2022-10-16T00:18:35;10.68;;;1.60;;
66380;SDS011;53177;52.648;1.214;2022-10-16T00:21:05;10.60;;;1.50;;
66380;SDS011;53177;52.648;1.214;2022-10-16T00:23:36;13.32;;;1.83;;
66380;SDS011;53177;52.648;1.214;2022-10-16T00:26:03;11.97;;;2.00;;
66380;SDS011;53177;52.648;1.214;2022-10-16T00:28:31;13.60;;;2.10;;
66380;SDS011;53177;52.648;1.214;2022-10-16T00:30:57;11.75;;;2.28;;
66380;SDS011;53177;52.648;1.214;2022-10-16T00:33:23;14.23;;;1.85;;
66380;SDS011;53177;52.648;1.214;2022-10-16T00:35:48;10.63;;;1.25;;
66380;SDS011;53177;52.648;1.214;2022-10-16T00:38:15;20.20;;;2.78;;
66380;SDS011;53177;52.648;1.214;2022-10-16T00:40:40;12.35;;;1.90;;
66380;SDS011;53177;52.648;1.214;2022-10-16T00:43:12;10.47;;;1.90;;
66380;SDS011;53177;52.648;1.214;2022-10-16T00:45:39;10.05;;;1.40;;
66380;SDS011;53177;52.648;1.214;2022-10-16T00:48:06;11.27;;;1.90;;
66380;SDS011;53177;52.648;1.214;2022-10-16T00:50:38;14.00;;;1.88;;
66380;SDS011;53177;52.648;1.214;2022-10-16T00:53:08;15.73;;;2.15;;
66380;SDS011;53177;52.648;1.214;2022-10-16T00:55:33;13.65;;;1.80;;
66380;SDS011;53177;52.648;1.214;2022-10-16T00:57:59;13.65;;;2.10;;
66380;SDS011;53177;52.648;1.214;2022-10-16T01:00:26;8.57;;;1.90;;
66380;SDS011;53177;52.648;1.214;2022-10-16T01:02:53;11.93;;;1.75;;
66380;SDS011;53177;52.648;1.214;2022-10-16T01:05:21;15.63;;;1.70;;
66380;SDS011;53177;52.648;1.214;2022-10-16T01:15:39;12.05;;;1.83;;
66380;SDS011;53177;52.648;1.214;2022-10-16T01:18:36;12.23;;;1.60;;
66380;SDS011;53177;52.648;1.214;2022-10-16T01:21:10;16.30;;;2.22;;
66380;SDS011;53177;52.648;1.214;2022-10-16T01:31:50;13.80;;;1.67;;
66380;SDS011;53177;52.648;1.214;2022-10-16T01:34:22;16.40;;;1.73;;
66380;SDS011;53177;52.648;1.214;2022-10-16T01:37:04;10.25;;;1.55;;
66380;SDS011;53177;52.648;1.214;2022-10-16T01:39:34;13.05;;;1.70;;
66380;SDS011;53177;52.648;1.214;2022-10-16T01:42:11;15.23;;;1.55;;
66380;SDS011;53177;52.648;1.214;2022-10-16T01:44:40;12.48;;;2.03;;
66380;SDS011;53177;52.648;1.214;2022-10-16T01:47:08;10.18;;;1.83;;
66380;SDS011;53177;52.648;1.214;2022-10-16T01:49:36;11.25;;;1.50;;
66380;SDS011;53177;52.648;1.214;2022-10-16T01:52:05;14.25;;;1.77;;
66380;SDS011;53177;52.648;1.214;2022-10-16T01:54:34;14.18;;;2.75;;
66380;SDS011;53177;52.648;1.214;2022-10-16T01:57:03;8.57;;;1.30;;
66380;SDS011;53177;52.648;1.214;2022-10-16T01:59:31;16.20;;;2.25;;
66380;SDS011;53177;52.648;1.214;2022-10-16T02:02:01;11.60;;;1.98;;
66380;SDS011;53177;52.648;1.214;2022-10-16T02:07:41;13.73;;;1.80;;
66380;SDS011;53177;52.648;1.214;2022-10-16T02:10:07;11.07;;;1.52;;
66380;SDS011;53177;52.648;1.214;2022-10-16T02:12:34;10.85;;;1.40;;
66380;SDS011;53177;52.648;1.214;2022-10-16T02:15:04;13.23;;;1.73;;
66380;SDS011;53177;52.648;1.214;2022-10-16T02:17:31;12.45;;;1.63;;
66380;SDS011;53177;52.648;1.214;2022-10-16T02:19:57;12.17;;;1.60;;
66380;SDS011;53177;52.648;1.214;2022-10-16T02:25:37;12.43;;;1.60;;
66380;SDS011;53177;52.648;1.214;2022-10-16T02:30:48;13.20;;;1.50;;
66380;SDS011;53177;52.648;1.214;2022-10-16T02:33:14;10.97;;;1.70;;
66380;SDS011;53177;52.648;1.214;2022-10-16T02:35:41;15.15;;;1.70;;
66380;SDS011;53177;52.648;1.214;2022-10-16T02:38:10;12.23;;;1.60;;
66380;SDS011;53177;52.648;1.214;2022-10-16T02:40:36;12.77;;;2.15;;
66380;SDS011;53177;52.648;1.214;2022-10-16T02:43:03;13.27;;;1.77;;
66380;SDS011;53177;52.648;1.214;2022-10-16T02:45:29;15.88;;;1.83;;
66380;SDS011;53177;52.648;1.214;2022-10-16T02:47:55;16.70;;;1.83;;
66380;SDS011;53177;52.648;1.214;2022-10-16T02:50:21;13.15;;;1.60;;
66380;SDS011;53177;52.648;1.214;2022-10-16T02:52:47;12.90;;;1.70;;
66380;SDS011;53177;52.648;1.214;2022-10-16T02:55:13;13.07;;;1.70;;
66380;SDS011;53177;52.648;1.214;2022-10-16T02:57:39;15.23;;;1.85;;
66380;SDS011;53177;52.648;1.214;2022-10-16T03:00:06;12.20;;;1.63;;
66380;SDS011;53177;52.648;1.214;2022-10-16T03:02:33;14.48;;;1.67;;
66380;SDS011;53177;52.648;1.214;2022-10-16T03:04:59;13.80;;;1.87;;
66380;SDS011;53177;52.648;1.214;2022-10-16T03:07:24;10.30;;;1.45;;
66380;SDS011;53177;52.648;1.214;2022-10-16T03:09:50;11.48;;;1.67;;
66380;SDS011;53177;52.648;1.214;2022-10-16T03:12:15;10.10;;;1.73;;
66380;SDS011;53177;52.648;1.214;2022-10-16T03:14:40;10.17;;;1.30;;
66380;SDS011;53177;52.648;1.214;2022-10-16T03:17:06;12.47;;;1.30;;
66380;SDS011;53177;52.648;1.214;2022-10-16T03:19:31;9.20;;;1.48;;
66380;SDS011;53177;52.648;1.214;2022-10-16T03:21:57;16.20;;;2.27;;
66380;SDS011;53177;52.648;1.214;2022-10-16T03:24:22;12.43;;;1.70;;
66380;SDS011;53177;52.648;1.214;2022-10-16T03:26:48;10.27;;;1.60;;
66380;SDS011;53177;52.648;1.214;2022-10-16T03:29:13;12.07;;;2.47;;
66380;SDS011;53177;52.648;1.214;2022-10-16T03:31:38;10.33;;;1.90;;
66380;SDS011;53177;52.648;1.214;2022-10-16T03:34:04;12.33;;;2.00;;
66380;SDS011;53177;52.648;1.214;2022-10-16T03:36:29;13.33;;;1.93;;
66380;SDS011;53177;52.648;1.214;2022-10-16T03:38:55;12.30;;;1.67;;
66380;SDS011;53177;52.648;1.214;2022-10-16T03:41:20;14.02;;;1.65;;
66380;SDS011;53177;52.648;1.214;2022-10-16T03:43:45;11.20;;;1.30;;
66380;SDS011;53177;52.648;1.214;2022-10-16T03:46:16;13.53;;;1.30;;
66380;SDS011;53177;52.648;1.214;2022-10-16T03:48:42;11.25;;;1.95;;
66380;SDS011;53177;52.648;1.214;2022-10-16T03:51:07;11.77;;;1.63;;
66380;SDS011;53177;52.648;1.214;2022-10-16T03:53:33;16.60;;;1.73;;
66380;SDS011;53177;52.648;1.214;2022-10-16T03:55:58;15.70;;;1.80;;
66380;SDS011;53177;52.648;1.214;2022-10-16T03:58:23;14.73;;;1.70;;
66380;SDS011;53177;52.648;1.214;2022-10-16T04:00:49;12.30;;;1.30;;
66380;SDS011;53177;52.648;1.214;2022-10-16T04:03:14;11.03;;;1.40;;
66380;SDS011;53177;52.648;1.214;2022-10-16T04:05:40;8.87;;;1.47;;
66380;SDS011;53177;52.648;1.214;2022-10-16T04:08:05;8.85;;;1.58;;
66380;SDS011;53177;52.648;1.214;2022-10-16T04:10:31;10.40;;;1.40;;
66380;SDS011;53177;52.648;1.214;2022-10-16T04:12:56;12.87;;;1.50;;
66380;SDS011;53177;52.648;1.214;2022-10-16T04:15:23;11.93;;;1.58;;
66380;SDS011;53177;52.648;1.214;2022-10-16T04:17:48;10.85;;;1.45;;
66380;SDS011;53177;52.648;1.214;2022-10-16T04:20:14;9.20;;;1.60;;
66380;SDS011;53177;52.648;1.214;2022-10-16T04:22:41;11.25;;;1.88;;
66380;SDS011;53177;52.648;1.214;2022-10-16T04:25:06;8.33;;;1.37;;
66380;SDS011;53177;52.648;1.214;2022-10-16T04:27:32;9.82;;;1.23;;
66380;SDS011;53177;52.648;1.214;2022-10-16T04:29:58;9.43;;;1.55;;
66380;SDS011;53177;52.648;1.214;2022-10-16T04:32:24;11.93;;;1.58;;
66380;SDS011;53177;52.648;1.214;2022-10-16T04:34:51;15.63;;;1.50;;
66380;SDS011;53177;52.648;1.214;2022-10-16T04:37:16;16.73;;;2.20;;
66380;SDS011;53177;52.648;1.214;2022-10-16T04:39:42;8.20;;;1.70;;
66380;SDS011;53177;52.648;1.214;2022-10-16T04:42:07;16.20;;;2.20;;
66380;SDS011;53177;52.648;1.214;2022-10-16T04:44:33;10.47;;;1.60;;
66380;SDS011;53177;52.648;1.214;2022-10-16T04:46:58;11.43;;;1.60;;
66380;SDS011;53177;52.648;1.214;2022-10-16T04:49:24;13.63;;;1.65;;
66380;SDS011;53177;52.648;1.214;2022-10-16T04:51:49;10.13;;;1.67;;
66380;SDS011;53177;52.648;1.214;2022-10-16T04:54:15;11.83;;;1.47;;
66380;SDS011;53177;52.648;1.214;2022-10-16T04:56:40;11.40;;;1.50;;
66380;SDS011;53177;52.648;1.214;2022-10-16T04:59:12;11.43;;;1.55;;
66380;SDS011;53177;52.648;1.214;2022-10-16T05:01:38;8.43;;;1.33;;
66380;SDS011;53177;52.648;1.214;2022-10-16T05:04:03;15.37;;;1.67;;
66380;SDS011;53177;52.648;1.214;2022-10-16T05:06:29;11.87;;;1.70;;
66380;SDS011;53177;52.648;1.214;2022-10-16T05:08:54;9.93;;;1.40;;
66380;SDS011;53177;52.648;1.214;2022-10-16T05:11:20;11.18;;;1.67;;
66380;SDS011;53177;52.648;1.214;2022-10-16T05:13:45;11.23;;;1.42;;
66380;SDS011;53177;52.648;1.214;2022-10-16T05:16:10;9.60;;;1.60;;
66380;SDS011;53177;52.648;1.214;2022-10-16T05:18:36;9.23;;;1.20;;
66380;SDS011;53177;52.648;1.214;2022-10-16T05:21:01;10.40;;;1.47;;
66380;SDS011;53177;52.648;1.214;2022-10-16T05:23:27;12.18;;;1.80;;
66380;SDS011;53177;52.648;1.214;2022-10-16T05:25:53;9.93;;;1.93;;
66380;SDS011;53177;52.648;1.214;2022-10-16T05:28:20;12.98;;;2.10;;
66380;SDS011;53177;52.648;1.214;2022-10-16T05:30:46;10.48;;;1.38;;
66380;SDS011;53177;52.648;1.214;2022-10-16T05:33:11;12.13;;;1.90;;
66380;SDS011;53177;52.648;1.214;2022-10-16T05:35:37;10.37;;;1.67;;
66380;SDS011;53177;52.648;1.214;2022-10-16T05:38:02;9.97;;;1.47;;
66380;SDS011;53177;52.648;1.214;2022-10-16T05:40:28;6.68;;;1.30;;
66380;SDS011;53177;52.648;1.214;2022-10-16T05:42:55;9.97;;;1.13;;
66380;SDS011;53177;52.648;1.214;2022-10-16T05:45:20;11.07;;;1.70;;
66380;SDS011;53177;52.648;1.214;2022-10-16T05:47:46;9.43;;;1.23;;
66380;SDS011;53177;52.648;1.214;2022-10-16T05:50:12;13.80;;;1.30;;
66380;SDS011;53177;52.648;1.214;2022-10-16T05:52:38;10.57;;;1.35;;
66380;SDS011;53177;52.648;1.214;2022-10-16T05:55:04;9.13;;;1.20;;
66380;SDS011;53177;52.648;1.214;2022-10-16T05:57:29;9.30;;;1.10;;
66380;SDS011;53177;52.648;1.214;2022-10-16T05:59:55;8.80;;;1.30;;
66380;SDS011;53177;52.648;1.214;2022-10-16T06:02:21;10.88;;;1.77;;
66380;SDS011;53177;52.648;1.214;2022-10-16T06:04:46;9.93;;;1.33;;
66380;SDS011;53177;52.648;1.214;2022-10-16T06:07:11;10.50;;;1.40;;
66380;SDS011;53177;52.648;1.214;2022-10-16T06:09:41;11.05;;;1.13;;
66380;SDS011;53177;52.648;1.214;2022-10-16T06:12:09;14.10;;;1.60;;
66380;SDS011;53177;52.648;1.214;2022-10-16T06:14:40;10.10;;;1.60;;
66380;SDS011;53177;52.648;1.214;2022-10-16T06:17:15;14.15;;;2.45;;
66380;SDS011;53177;52.648;1.214;2022-10-16T06:19:44;15.88;;;3.45;;
66380;SDS011;53177;52.648;1.214;2022-10-16T06:22:13;12.02;;;2.17;;
66380;SDS011;53177;52.648;1.214;2022-10-16T06:24:42;10.63;;;1.65;;
66380;SDS011;53177;52.648;1.214;2022-10-16T06:27:11;12.60;;;1.60;;
66380;SDS011;53177;52.648;1.214;2022-10-16T06:29:39;18.63;;;3.20;;
66380;SDS011;53177;52.648;1.214;2022-10-16T06:32:08;16.10;;;3.05;;
66380;SDS011;53177;52.648;1.214;2022-10-16T06:34:37;9.27;;;1.58;;
66380;SDS011;53177;52.648;1.214;2022-10-16T06:37:06;10.85;;;1.65;;
66380;SDS011;53177;52.648;1.214;2022-10-16T06:39:34;10.48;;;1.00;;
66380;SDS011;53177;52.648;1.214;2022-10-16T06:42:08;9.20;;;0.98;;
66380;SDS011;53177;52.648;1.214;2022-10-16T06:44:40;15.30;;;2.25;;
66380;SDS011;53177;52.648;1.214;2022-10-16T06:47:12;16.92;;;2.95;;
66380;SDS011;53177;52.648;1.214;2022-10-16T06:49:40;15.60;;;1.70;;
66380;SDS011;53177;52.648;1.214;2022-10-16T06:52:10;8.90;;;1.13;;
66380;SDS011;53177;52.648;1.214;2022-10-16T06:54:35;11.30;;;2.03;;
66380;SDS011;53177;52.648;1.214;2022-10-16T06:57:00;18.95;;;3.45;;
66380;SDS011;53177;52.648;1.214;2022-10-16T06:59:26;12.00;;;1.90;;
66380;SDS011;53177;52.648;1.214;2022-10-16T07:01:52;17.55;;;2.42;;
66380;SDS011;53177;52.648;1.214;2022-10-16T07:04:17;16.83;;;3.73;;
66380;SDS011;53177;52.648;1.214;2022-10-16T07:06:43;15.27;;;2.83;;
66380;SDS011;53177;52.648;1.214;2022-10-16T07:09:08;16.50;;;2.83;;
66380;SDS011;53177;52.648;1.214;2022-10-16T07:11:36;14.38;;;2.28;;
66380;SDS011;53177;52.648;1.214;2022-10-16T07:14:02;7.80;;;1.30;;
66380;SDS011;53177;52.648;1.214;2022-10-16T07:16:29;9.37;;;1.60;;
66380;SDS011;53177;52.648;1.214;2022-10-16T07:18:57;9.80;;;1.67;;
66380;SDS011;53177;52.648;1.214;2022-10-16T07:21:24;14.55;;;2.13;;
66380;SDS011;53177;52.648;1.214;2022-10-16T07:23:55;17.92;;;2.97;;
66380;SDS011;53177;52.648;1.214;2022-10-16T07:26:23;11.85;;;2.80;;
66380;SDS011;53177;52.648;1.214;2022-10-16T07:28:50;11.73;;;1.77;;
66380;SDS011;53177;52.648;1.214;2022-10-16T07:31:18;10.38;;;2.25;;
66380;SDS011;53177;52.648;1.214;2022-10-16T07:33:46;12.07;;;2.10;;
66380;SDS011;53177;52.648;1.214;2022-10-16T07:36:13;13.77;;;2.50;;
66380;SDS011;53177;52.648;1.214;2022-10-16T07:38:43;12.45;;;2.10;;
66380;SDS011;53177;52.648;1.214;2022-10-16T07:41:10;11.77;;;2.00;;
66380;SDS011;53177;52.648;1.214;2022-10-16T07:43:37;14.95;;;3.20;;
66380;SDS011;53177;52.648;1.214;2022-10-16T07:46:03;13.48;;;2.50;;
66380;SDS011;53177;52.648;1.214;2022-10-16T07:48:30;14.50;;;1.87;;
66380;SDS011;53177;52.648;1.214;2022-10-16T07:50:58;14.70;;;2.38;;
66380;SDS011;53177;52.648;1.214;2022-10-16T07:53:24;15.32;;;2.72;;
66380;SDS011;53177;52.648;1.214;2022-10-16T07:55:50;17.53;;;3.63;;
66380;SDS011;53177;52.648;1.214;2022-10-16T07:58:15;11.50;;;2.40;;
66380;SDS011;53177;52.648;1.214;2022-10-16T08:00:40;15.07;;;3.42;;
66380;SDS011;53177;52.648;1.214;2022-10-16T08:03:06;24.70;;;4.97;;
66380;SDS011;53177;52.648;1.214;2022-10-16T08:05:32;12.48;;;2.92;;
66380;SDS011;53177;52.648;1.214;2022-10-16T08:07:58;18.40;;;3.95;;
66380;SDS011;53177;52.648;1.214;2022-10-16T08:10:26;14.60;;;1.67;;
66380;SDS011;53177;52.648;1.214;2022-10-16T08:12:53;21.73;;;3.45;;
66380;SDS011;53177;52.648;1.214;2022-10-16T08:15:19;11.97;;;1.50;;
66380;SDS011;53177;52.648;1.214;2022-10-16T08:17:53;11.98;;;2.33;;
66380;SDS011;53177;52.648;1.214;2022-10-16T08:20:21;10.65;;;1.98;;
66380;SDS011;53177;52.648;1.214;2022-10-16T08:22:47;13.07;;;2.95;;
66380;SDS011;53177;52.648;1.214;2022-10-16T08:25:13;12.63;;;2.20;;
66380;SDS011;53177;52.648;1.214;2022-10-16T08:27:38;15.30;;;3.80;;
66380;SDS011;53177;52.648;1.214;2022-10-16T08:30:04;13.73;;;3.10;;
66380;SDS011;53177;52.648;1.214;2022-10-16T08:32:31;11.70;;;2.03;;
66380;SDS011;53177;52.648;1.214;2022-10-16T08:34:56;12.70;;;2.30;;
66380;SDS011;53177;52.648;1.214;2022-10-16T08:37:21;12.27;;;2.37;;
66380;SDS011;53177;52.648;1.214;2022-10-16T08:39:47;12.55;;;2.70;;
66380;SDS011;53177;52.648;1.214;2022-10-16T08:42:21;12.17;;;1.90;;
66380;SDS011;53177;52.648;1.214;2022-10-16T08:51:03;8.95;;;1.67;;
66380;SDS011;53177;52.648;1.214;2022-10-16T08:53:42;9.32;;;1.50;;
66380;SDS011;53177;52.648;1.214;2022-10-16T08:56:11;11.25;;;2.90;;
66380;SDS011;53177;52.648;1.214;2022-10-16T08:58:37;10.47;;;2.10;;
66380;SDS011;53177;52.648;1.214;2022-10-16T09:01:10;14.07;;;3.07;;
66380;SDS011;53177;52.648;1.214;2022-10-16T09:11:53;12.35;;;2.55;;
66380;SDS011;53177;52.648;1.214;2022-10-16T09:20:26;12.43;;;2.22;;
66380;SDS011;53177;52.648;1.214;2022-10-16T09:25:32;14.38;;;3.70;;
66380;SDS011;53177;52.648;1.214;2022-10-16T09:27:59;16.05;;;3.13;;
66380;SDS011;53177;52.648;1.214;2022-10-16T09:30:26;6.55;;;1.30;;
66380;SDS011;53177;52.648;1.214;2022-10-16T09:32:54;8.97;;;1.40;;
66380;SDS011;53177;52.648;1.214;2022-10-16T09:35:24;12.55;;;3.28;;
66380;SDS011;53177;52.648;1.214;2022-10-16T09:37:57;10.70;;;2.33;;
66380;SDS011;53177;52.648;1.214;2022-10-16T09:40:28;15.03;;;3.37;;
66380;SDS011;53177;52.648;1.214;2022-10-16T09:42:56;15.80;;;3.90;;
66380;SDS011;53177;52.648;1.214;2022-10-16T09:45:27;12.93;;;2.47;;
66380;SDS011;53177;52.648;1.214;2022-10-16T09:47:55;7.75;;;1.60;;
66380;SDS011;53177;52.648;1.214;2022-10-16T09:50:25;6.20;;;1.20;;
66380;SDS011;53177;52.648;1.214;2022-10-16T09:53:07;8.05;;;1.20;;
66380;SDS011;53177;52.648;1.214;2022-10-16T09:55:51;13.00;;;3.53;;
66380;SDS011;53177;52.648;1.214;2022-10-16T09:58:20;9.97;;;2.00;;
66380;SDS011;53177;52.648;1.214;2022-10-16T10:00:50;10.25;;;2.30;;
66380;SDS011;53177;52.648;1.214;2022-10-16T10:06:13;12.30;;;2.70;;
66380;SDS011;53177;52.648;1.214;2022-10-16T10:08:52;7.90;;;1.08;;
66380;SDS011;53177;52.648;1.214;2022-10-16T10:14:16;7.68;;;1.20;;
66380;SDS011;53177;52.648;1.214;2022-10-16T10:16:44;5.32;;;0.80;;
66380;SDS011;53177;52.648;1.214;2022-10-16T10:19:17;3.97;;;0.70;;
66380;SDS011;53177;52.648;1.214;2022-10-16T10:21:44;5.93;;;0.60;;
66380;SDS011;53177;52.648;1.214;2022-10-16T10:24:11;7.93;;;0.90;;
66380;SDS011;53177;52.648;1.214;2022-10-16T10:26:51;8.15;;;1.15;;
66380;SDS011;53177;52.648;1.214;2022-10-16T10:32:11;9.95;;;1.05;;
66380;SDS011;53177;52.648;1.214;2022-10-16T10:37:43;8.40;;;0.90;;
66380;SDS011;53177;52.648;1.214;2022-10-16T10:45:59;7.68;;;2.00;;
66380;SDS011;53177;52.648;1.214;2022-10-16T10:51:13;5.38;;;0.88;;
66380;SDS011;53177;52.648;1.214;2022-10-16T10:56:47;4.97;;;1.15;;
66380;SDS011;53177;52.648;1.214;2022-10-16T11:01:57;6.57;;;1.40;;
66380;SDS011;53177;52.648;1.214;2022-10-16T11:05:16;9.23;;;1.50;;
66380;SDS011;53177;52.648;1.214;2022-10-16T11:07:28;7.43;;;1.90;;
66380;SDS011;53177;52.648;1.214;2022-10-16T11:09:58;8.63;;;2.20;;
66380;SDS011;53177;52.648;1.214;2022-10-16T11:12:35;7.65;;;1.30;;
66380;SDS011;53177;52.648;1.214;2022-10-16T11:15:12;12.50;;;3.70;;
66380;SDS011;53177;52.648;1.214;2022-10-16T11:17:44;8.13;;;2.30;;
66380;SDS011;53177;52.648;1.214;2022-10-16T11:20:23;8.77;;;2.60;;
66380;SDS011;53177;52.648;1.214;2022-10-16T11:23:11;6.70;;;1.33;;
66380;SDS011;53177;52.648;1.214;2022-10-16T11:25:43;6.85;;;1.70;;
66380;SDS011;53177;52.648;1.214;2022-10-16T11:30:47;8.90;;;2.72;;
66380;SDS011;53177;52.648;1.214;2022-10-16T11:33:24;9.73;;;2.35;;
66380;SDS011;53177;52.648;1.214;2022-10-16T11:41:29;5.57;;;1.20;;
66380;SDS011;53177;52.648;1.214;2022-10-16T11:44:06;5.85;;;1.10;;
66380;SDS011;53177;52.648;1.214;2022-10-16T11:46:42;5.07;;;1.00;;
66380;SDS011;53177;52.648;1.214;2022-10-16T11:49:18;5.07;;;0.70;;
66380;SDS011;53177;52.648;1.214;2022-10-16T11:54:42;4.37;;;0.60;;
66380;SDS011;53177;52.648;1.214;2022-10-16T11:57:27;4.00;;;0.60;;
66380;SDS011;53177;52.648;1.214;2022-10-16T11:59:58;7.30;;;0.90;;
66380;SDS011;53177;52.648;1.214;2022-10-16T12:08:14;5.43;;;1.00;;
66380;SDS011;53177;52.648;1.214;2022-10-16T12:10:42;6.93;;;2.00;;
66380;SDS011;53177;52.648;1.214;2022-10-16T12:16:05;6.20;;;1.05;;
66380;SDS011;53177;52.648;1.214;2022-10-16T12:18:34;8.50;;;2.40;;
66380;SDS011;53177;52.648;1.214;2022-10-16T12:20:59;6.10;;;1.30;;
66380;SDS011;53177;52.648;1.214;2022-10-16T12:23:29;4.65;;;0.90;;
66380;SDS011;53177;52.648;1.214;2022-10-16T12:25:56;5.80;;;1.00;;
66380;SDS011;53177;52.648;1.214;2022-10-16T12:28:27;10.20;;;2.78;;
66380;SDS011;53177;52.648;1.214;2022-10-16T12:31:02;10.07;;;2.50;;
66380;SDS011;53177;52.648;1.214;2022-10-16T12:33:33;5.82;;;0.88;;
66380;SDS011;53177;52.648;1.214;2022-10-16T12:36:06;5.28;;;0.88;;
66380;SDS011;53177;52.648;1.214;2022-10-16T12:38:47;3.50;;;0.60;;
66380;SDS011;53177;52.648;1.214;2022-10-16T12:41:23;4.38;;;0.52;;
66380;SDS011;53177;52.648;1.214;2022-10-16T12:43:56;5.63;;;0.80;;
66380;SDS011;53177;52.648;1.214;2022-10-16T12:46:23;4.15;;;0.73;;
66380;SDS011;53177;52.648;1.214;2022-10-16T12:51:46;4.50;;;0.60;;
66380;SDS011;53177;52.648;1.214;2022-10-16T13:02:45;6.03;;;1.88;;
66380;SDS011;53177;52.648;1.214;2022-10-16T13:10:53;3.10;;;0.57;;
66380;SDS011;53177;52.648;1.214;2022-10-16T13:24:46;4.90;;;1.15;;
66380;SDS011;53177;52.648;1.214;2022-10-16T13:30:12;4.60;;;0.50;;
66380;SDS011;53177;52.648;1.214;2022-10-16T13:32:48;3.83;;;0.60;;
66380;SDS011;53177;52.648;1.214;2022-10-16T13:35:35;4.88;;;1.20;;
66380;SDS011;53177;52.648;1.214;2022-10-16T13:38:04;8.77;;;2.47;;
66380;SDS011;53177;52.648;1.214;2022-10-16T13:40:36;5.22;;;1.30;;
66380;SDS011;53177;52.648;1.214;2022-10-16T13:43:43;4.88;;;1.20;;
66380;SDS011;53177;52.648;1.214;2022-10-16T13:46:17;6.37;;;1.37;;
66380;SDS011;53177;52.648;1.214;2022-10-16T13:49:00;2.50;;;0.65;;
66380;SDS011;53177;52.648;1.214;2022-10-16T13:51:28;3.33;;;0.68;;
66380;SDS011;53177;52.648;1.214;2022-10-16T13:53:55;5.25;;;1.00;;
66380;SDS011;53177;52.648;1.214;2022-10-16T13:56:22;3.90;;;1.00;;
66380;SDS011;53177;52.648;1.214;2022-10-16T13:59:06;5.40;;;1.10;;
66380;SDS011;53177;52.648;1.214;2022-10-16T14:01:47;5.03;;;1.00;;
66380;SDS011;53177;52.648;1.214;2022-10-16T14:04:14;5.60;;;1.00;;
66380;SDS011;53177;52.648;1.214;2022-10-16T14:06:41;4.38;;;0.82;;
66380;SDS011;53177;52.648;1.214;2022-10-16T14:09:13;5.07;;;1.10;;
66380;SDS011;53177;52.648;1.214;2022-10-16T14:11:45;4.67;;;0.73;;
66380;SDS011;53177;52.648;1.214;2022-10-16T14:14:16;5.05;;;1.00;;
66380;SDS011;53177;52.648;1.214;2022-10-16T14:16:43;3.15;;;0.60;;
66380;SDS011;53177;52.648;1.214;2022-10-16T14:19:21;5.30;;;0.70;;
66380;SDS011;53177;52.648;1.214;2022-10-16T14:21:52;4.10;;;0.80;;
66380;SDS011;53177;52.648;1.214;2022-10-16T14:24:36;4.30;;;0.70;;
66380;SDS011;53177;52.648;1.214;2022-10-16T14:27:20;4.45;;;0.63;;
66380;SDS011;53177;52.648;1.214;2022-10-16T14:30:11;7.50;;;1.23;;
66380;SDS011;53177;52.648;1.214;2022-10-16T14:32:52;4.10;;;0.60;;
66380;SDS011;53177;52.648;1.214;2022-10-16T14:35:31;7.40;;;0.80;;
66380;SDS011;53177;52.648;1.214;2022-10-16T14:38:01;6.05;;;0.88;;
66380;SDS011;53177;52.648;1.214;2022-10-16T14:40:30;3.95;;;0.73;;
66380;SDS011;53177;52.648;1.214;2022-10-16T14:43:01;5.30;;;0.90;;
66380;SDS011;53177;52.648;1.214;2022-10-16T14:45:29;5.15;;;0.70;;
66380;SDS011;53177;52.648;1.214;2022-10-16T14:47:56;5.27;;;1.10;;
66380;SDS011;53177;52.648;1.214;2022-10-16T14:50:24;5.70;;;0.70;;
66380;SDS011;53177;52.648;1.214;2022-10-16T14:52:50;5.28;;;1.00;;
66380;SDS011;53177;52.648;1.214;2022-10-16T14:55:16;6.03;;;1.00;;
66380;SDS011;53177;52.648;1.214;2022-10-16T14:57:42;7.50;;;0.90;;
66380;SDS011;53177;52.648;1.214;2022-10-16T15:00:10;5.60;;;1.00;;
66380;SDS011;53177;52.648;1.214;2022-10-16T15:02:47;7.28;;;1.00;;
66380;SDS011;53177;52.648;1.214;2022-10-16T15:05:21;6.90;;;1.00;;
66380;SDS011;53177;52.648;1.214;2022-10-16T15:07:51;6.18;;;1.35;;
66380;SDS011;53177;52.648;1.214;2022-10-16T15:10:19;4.53;;;0.95;;
66380;SDS011;53177;52.648;1.214;2022-10-16T15:12:47;9.93;;;1.50;;
66380;SDS011;53177;52.648;1.214;2022-10-16T15:17:59;5.13;;;1.10;;
66380;SDS011;53177;52.648;1.214;2022-10-16T15:20:35;4.20;;;1.02;;
66380;SDS011;53177;52.648;1.214;2022-10-16T15:23:03;7.50;;;1.90;;
66380;SDS011;53177;52.648;1.214;2022-10-16T15:25:39;7.17;;;1.63;;
66380;SDS011;53177;52.648;1.214;2022-10-16T15:28:07;6.05;;;1.50;;
66380;SDS011;53177;52.648;1.214;2022-10-16T15:30:34;6.53;;;1.40;;
66380;SDS011;53177;52.648;1.214;2022-10-16T15:33:02;6.30;;;1.40;;
66380;SDS011;53177;52.648;1.214;2022-10-16T15:35:28;8.02;;;1.48;;
66380;SDS011;53177;52.648;1.214;2022-10-16T15:37:54;8.40;;;1.10;;
66380;SDS011;53177;52.648;1.214;2022-10-16T15:40:20;7.63;;;1.27;;
66380;SDS011;53177;52.648;1.214;2022-10-16T15:42:48;7.05;;;1.20;;
66380;SDS011;53177;52.648;1.214;2022-10-16T15:45:14;6.37;;;1.23;;
66380;SDS011;53177;52.648;1.214;2022-10-16T15:47:42;4.47;;;1.30;;
66380;SDS011;53177;52.648;1.214;2022-10-16T15:50:12;6.03;;;1.20;;
66380;SDS011;53177;52.648;1.214;2022-10-16T15:52:40;5.60;;;1.40;;
66380;SDS011;53177;52.648;1.214;2022-10-16T15:55:07;6.27;;;1.20;;
66380;SDS011;53177;52.648;1.214;2022-10-16T15:57:39;7.10;;;1.30;;
66380;SDS011;53177;52.648;1.214;2022-10-16T16:00:08;8.43;;;2.22;;
66380;SDS011;53177;52.648;1.214;2022-10-16T16:02:36;10.18;;;1.80;;
66380;SDS011;53177;52.648;1.214;2022-10-16T16:05:02;6.87;;;1.27;;
66380;SDS011;53177;52.648;1.214;2022-10-16T16:07:28;51.30;;;23.17;;
66380;SDS011;53177;52.648;1.214;2022-10-16T16:09:58;24.38;;;12.15;;
66380;SDS011;53177;52.648;1.214;2022-10-16T16:12:23;57.90;;;25.93;;
66380;SDS011;53177;52.648;1.214;2022-10-16T16:14:49;49.30;;;19.43;;
66380;SDS011;53177;52.648;1.214;2022-10-16T16:17:16;24.65;;;9.15;;
66380;SDS011;53177;52.648;1.214;2022-10-16T16:19:41;19.85;;;7.28;;
66380;SDS011;53177;52.648;1.214;2022-10-16T16:22:07;22.13;;;6.77;;
66380;SDS011;53177;52.648;1.214;2022-10-16T16:24:32;14.10;;;3.90;;
66380;SDS011;53177;52.648;1.214;2022-10-16T16:26:58;15.98;;;4.60;;
66380;SDS011;53177;52.648;1.214;2022-10-16T16:29:23;13.27;;;2.70;;
66380;SDS011;53177;52.648;1.214;2022-10-16T16:31:49;14.43;;;4.37;;
66380;SDS011;53177;52.648;1.214;2022-10-16T16:34:14;19.53;;;7.17;;
66380;SDS011;53177;52.648;1.214;2022-10-16T16:36:40;17.15;;;4.55;;
66380;SDS011;53177;52.648;1.214;2022-10-16T16:39:06;12.83;;;3.47;;
66380;SDS011;53177;52.648;1.214;2022-10-16T16:41:32;16.85;;;6.47;;
66380;SDS011;53177;52.648;1.214;2022-10-16T16:44:05;29.55;;;9.20;;
66380;SDS011;53177;52.648;1.214;2022-10-16T16:46:34;21.27;;;6.93;;
66380;SDS011;53177;52.648;1.214;2022-10-16T16:49:00;14.73;;;5.43;;
66380;SDS011;53177;52.648;1.214;2022-10-16T16:51:26;10.95;;;3.20;;
66380;SDS011;53177;52.648;1.214;2022-10-16T16:53:52;9.87;;;3.40;;
66380;SDS011;53177;52.648;1.214;2022-10-16T16:56:19;11.30;;;3.00;;
66380;SDS011;53177;52.648;1.214;2022-10-16T16:58:45;14.60;;;5.32;;